METAR Data
IDs: Format: Raw Decoded Include TAF

Data at: 2015 UTC 17 Nov 2019

KTBN 172010Z AUTO 22005KT 10SM BKN070 09/M01 A2990 RMK AO2 DZB1958E10 SLP132 $
KTBN 171958Z AUTO 26005KT 10SM -DZ BKN075 09/M01 A2991 RMK AO2 DZB58 SLP135 $
KTBN 171956Z AUTO 25007KT 10SM BKN075 09/M01 A2991 RMK AO2 SLP135 T00931014 $
KTBN 171856Z AUTO 18005KT 10SM FEW033 09/M01 A2993 RMK AO2 DZB48E55 SLP142 P0000 T00931006 $
KTBN 171855Z AUTO 18005KT 10SM FEW033 09/M01 A2993 RMK AO2 DZB48E55 SLP142 $
KTBN 171848Z AUTO 20004KT 10SM -DZ FEW033 09/M01 A2993 RMK AO2 DZB48 SLP142 $
KTBN 171756Z AUTO 22006KT 10SM CLR 09/M01 A2997 RMK AO2 SLP156 T00931012 10094 20032 57018 $
KTBN 171656Z AUTO 23007KT 10SM CLR 09/M01 A2999 RMK AO2 SLPNO T00921007 $
KTBN 171556Z AUTO 19003KT 10SM CLR 08/00 A3000 RMK AO2 SLP166 T00781002 $
KTBN 171456Z AUTO 18006KT 10SM FEW170 06/00 A3002 RMK AO2 SLP174 T00640001 55004 $
KTBN 171356Z AUTO 19005KT 10SM FEW160 05/00 A3003 RMK AO2 SLP177 T00461002 $
KTBN 171256Z 17005KT 10SM SCT150 04/00 A3003 RMK AO2A SLP177 T00351003 $
KTBN 171156Z AUTO 16004KT 10SM FEW140 04/M01 A3003 RMK AO2 SLP176 T00381006 10043 20025 58013 $
KTBN 171056Z AUTO 17007KT 10SM OVC150 04/M01 A3005 RMK AO2 SLP182 T00381010 $
KTBN 170956Z AUTO 21004KT 10SM BKN160 03/M01 A3007 RMK AO2 SLP188 T00251013 $
KTBN 170856Z AUTO 14007KT 10SM FEW160 03/M01 A3007 RMK AO2 SLP188 T00261014 58008 $
KTBN 170756Z AUTO 17003KT 10SM SCT150 03/M01 A3009 RMK AO2 SLP195 T00261014 $
KTBN 170656Z AUTO 13006KT 10SM CLR 03/M01 A3009 RMK AO2 SLP196 T00281014 $
KTBN 170556Z AUTO 12006KT 10SM FEW160 04/M01 A3009 RMK AO2 SLP196 T00381014 10075 20030 401281035 $
KTBN 170456Z AUTO 14006KT 10SM BKN170 03/M01 A3011 RMK AO2 SLP204 T00251015 $
KTBN 170356Z AUTO 13004KT 10SM OVC230 03/M01 A3009 RMK AO2 SLP198 T00321014 $
KTBN 170256Z AUTO 13008KT 10SM FEW240 04/M01 A3010 RMK AO2 SLP203 T00391015 57007 $
KTBN 170156Z AUTO 14007KT 10SM CLR 05/M01 A3010 RMK AO2 SLP204 T00501015 $
KTBN 170056Z AUTO 14005KT 10SM CLR 06/M02 A3012 RMK AO2 SLP212 T00581018 $
KTBN 162356Z AUTO 14005KT 10SM CLR 08/M01 A3012 RMK AO2 SLP211 T00751012 10128 20075 55008 $
KTBN 162326Z AUTO 12005KT 4SM HZ CLR 09/M02 A3012 RMK AO2 SLP210 $
KTBN 162316Z AUTO 11005KT 2 1/4SM HZ CLR 09/M02 A3012 RMK AO2 VIS 1 3/4V2 1/4 SLP210 $
KTBN 162256Z 14005KT 1 7/8SM HZ CLR 09/M02 A3012 RMK AO2A SLP210 T00941019 $
KTBN 162231Z AUTO 15006KT 1 7/8SM HZ CLR 11/M01 A3013 RMK AO2 SLP212 $
KTBN 162221Z AUTO 15007KT 2SM HZ CLR 12/M02 A3013 RMK AO2 SLP212 $
KTBN 162211Z AUTO 15004KT 1 3/4SM HZ CLR 12/M01 A3014 RMK AO2 VIS 1 3/4V5 SLP216 $
KTBN 162156Z AUTO 16004KT 4SM HZ CLR 12/M03 A3014 RMK AO2 SLP215 T01241026 $
KTBN 162151Z AUTO 16005KT 2 1/4SM HZ CLR 13/M02 A3014 RMK AO2 VIS 1 5/8V2 1/4 SLP215 $
KTBN 162126Z AUTO 14007KT 1 1/4SM HZ CLR 13/M03 A3014 RMK AO2 SLP215 $
KTBN 162121Z AUTO 15008KT 1SM HZ CLR 13/M03 A3014 RMK AO2 SLP215 RVRNO $
KTBN 162111Z AUTO 15006KT 7/8SM HZ CLR 13/M03 A3014 RMK AO2 SLP215 RVRNO $
KTBN 162101Z AUTO 12007KT 1SM HZ CLR 13/M03 A3014 RMK AO2 SLP215 RVRNO $
KTBN 162056Z AUTO 15007KT 1SM HZ CLR 13/M03 A3015 RMK AO2 SLP218 T01271028 57030 RVRNO $
KTBN 162046Z AUTO 13009KT 1SM HZ CLR 13/M02 A3015 RMK AO2 SLP218 RVRNO $
KTBN 162031Z AUTO 13006KT 7/8SM HZ CLR 12/M02 A3016 RMK AO2 VIS 7/8V3 SLP222 RVRNO $
KTBN 162026Z AUTO 12007KT 1 3/8SM HZ CLR 13/M02 A3016 RMK AO2 VIS 1 3/8V6 SLP221 $
KTBN 161956Z AUTO 09005KT 6SM HZ CLR 13/M02 A3018 RMK AO2 SLP228 T01251018 $
KTBN 161856Z AUTO 14005KT 10SM CLR 12/M01 A3020 RMK AO2 SLP235 T01151013 $
KTBN 161756Z AUTO 13003KT 5SM HZ CLR 10/M02 A3024 RMK AO2 SLP249 T01011022 10101 21034 58017 $
KTBN 161656Z AUTO 14005KT 7SM CLR 08/M03 A3028 RMK AO2 SLP264 T00841029 $
KTBN 161556Z AUTO 14006KT 10SM CLR 06/M05 A3030 RMK AO2 SLP271 T00601053 $
KTBN 161456Z AUTO 14005KT 10SM CLR 02/M06 A3029 RMK AO2 SLP268 T00231056 58001 $
KTBN 161436Z AUTO 15004KT 4SM HZ CLR 02/M05 A3029 RMK AO2 SLP268 $
KTBN 161356Z AUTO 14004KT 2 1/4SM HZ CLR 00/M06 A3029 RMK AO2 SLP269 T10031061 $
KTBN 161326Z AUTO 13006KT 2SM HZ CLR M03/M07 A3030 RMK AO2 SLP273 $
KTBN 161321Z AUTO 13004KT 1 7/8SM HZ CLR M03/M07 A3030 RMK AO2 VIS 1 7/8V2 1/2 SLP273 $
KTBN 161301Z AUTO 13005KT 2 1/2SM HZ CLR M03/M07 A3030 RMK AO2 VIS 2 1/2V3 SLP273 $
KTBN 161256Z 13005KT 3SM HZ CLR M03/M07 A3029 RMK AO2A SLP270 T10331073 $
KTBN 161156Z AUTO 14005KT 3SM HZ CLR M03/M07 A3029 RMK AO2 SLP269 T10341074 11003 21035 55000 $
KTBN 161056Z AUTO 13006KT 5SM HZ CLR M03/M07 A3029 RMK AO2 SLP269 T10311069 $
KTBN 160956Z AUTO 13005KT 4SM HZ CLR M02/M07 A3029 RMK AO2 SLP267 T10231072 $
KTBN 160856Z AUTO 14006KT 6SM HZ CLR M02/M07 A3029 RMK AO2 SLP267 T10251072 57007 $